Time;durP1;ratioP1;P1;durP2;ratioP2;P2;SDS_P1;SDS_P2;PMS_P1;PMS_P2;Temp;Humidity;BMP_temperature;BMP_pressure;BME280_temperature;BME280_humidity;BME280_pressure;Samples;Min_cycle;Max_cycle;Signal;HPM_P1;HPM_P2
2022/01/05 00:01:13;;;;;;;;;19.25;15.75;;;;;9.36;65.75;100747.16;146600;581;46017;-76
2022/01/05 00:04:06;;;;;;;;;16.00;15.00;;;;;9.34;65.19;100752.22;146601;570;46008;-76
2022/01/05 00:06:58;;;;;;;;;18.00;14.50;;;;;9.35;65.72;100758.31;146599;573;46917;-76
2022/01/05 00:09:51;;;;;;;;;18.50;18.50;;;;;9.33;66.12;100755.63;146603;596;46020;-77
2022/01/05 00:12:43;;;;;;;;;22.50;21.50;;;;;9.28;66.00;100757.06;146599;586;46916;-75
2022/01/05 00:15:35;;;;;;;;;24.50;21.75;;;;;9.21;64.90;100749.75;146600;612;46008;-74
2022/01/05 00:18:28;;;;;;;;;25.50;23.50;;;;;9.20;65.02;100758.34;146598;570;47010;-73
2022/01/05 00:21:20;;;;;;;;;28.00;24.75;;;;;9.17;64.92;100764.22;146602;592;46020;-71
2022/01/05 00:24:13;;;;;;;;;29.25;26.50;;;;;9.17;66.33;100756.47;146599;646;46917;-70
2022/01/05 00:27:05;;;;;;;;;35.50;31.50;;;;;9.17;66.63;100753.88;146601;639;46008;-73
2022/01/05 00:29:58;;;;;;;;;28.00;23.50;;;;;9.18;65.58;100755.63;146599;625;46017;-73
2022/01/05 00:32:50;;;;;;;;;25.75;22.50;;;;;9.14;64.71;100753.69;146602;652;46008;-76
2022/01/05 00:35:42;;;;;;;;;24.25;22.75;;;;;9.10;66.21;100762.09;146597;589;46916;-74
2022/01/05 00:38:35;;;;;;;;;21.25;20.00;;;;;9.05;65.91;100757.44;146602;582;46008;-74
2022/01/05 00:41:27;;;;;;;;;16.50;14.50;;;;;8.99;65.24;100763.16;146600;687;46016;-72
2022/01/05 00:44:19;;;;;;;;;15.50;15.50;;;;;8.92;65.27;100750.69;146600;633;47008;-72
2022/01/05 00:47:12;;;;;;;;;22.25;16.50;;;;;8.88;66.08;100762.53;146600;571;46012;-73
2022/01/05 00:50:04;;;;;;;;;14.25;13.50;;;;;8.77;67.11;100754.12;146600;583;47008;-73
2022/01/05 00:53:00;;;;;;;;;16.00;14.50;;;;;8.70;66.60;100754.59;146597;620;47010;-75
2022/01/05 00:55:52;;;;;;;;;18.25;14.00;;;;;8.64;67.07;100753.34;146605;601;46020;-74
2022/01/05 00:58:45;;;;;;;;;19.50;16.00;;;;;8.49;68.37;100751.63;146600;564;46017;-75
2022/01/05 01:01:37;;;;;;;;;17.50;14.50;;;;;8.41;67.15;100757.12;146599;576;47008;-76
2022/01/05 01:04:29;;;;;;;;;16.75;16.75;;;;;8.38;68.57;100756.91;146599;590;46016;-78
2022/01/05 01:07:21;;;;;;;;;17.00;14.00;;;;;8.27;68.95;100749.41;146601;678;46021;-77
2022/01/05 01:10:14;;;;;;;;;19.00;17.00;;;;;8.18;69.20;100748.84;146599;602;46016;-78
2022/01/05 01:13:06;;;;;;;;;17.50;14.75;;;;;8.16;69.18;100758.19;146602;599;45020;-79
2022/01/05 01:15:58;;;;;;;;;19.75;16.75;;;;;8.20;68.62;100755.00;146601;576;46010;-78
2022/01/05 01:18:51;;;;;;;;;16.75;14.25;;;;;8.24;68.12;100746.63;146601;565;47008;-73
2022/01/05 01:21:43;;;;;;;;;15.50;15.00;;;;;8.31;69.42;100742.72;146598;583;46917;-73
2022/01/05 01:24:35;;;;;;;;;16.25;15.75;;;;;8.40;68.87;100751.06;146602;575;46008;-74
2022/01/05 01:27:27;;;;;;;;;14.00;11.25;;;;;8.47;67.37;100740.31;146597;613;47010;-74
2022/01/05 01:30:19;;;;;;;;;12.50;10.50;;;;;8.56;67.92;100740.84;146599;602;47008;-73
2022/01/05 01:33:12;;;;;;;;;17.00;12.50;;;;;8.57;67.29;100739.16;146597;595;47010;-73
2022/01/05 01:36:04;;;;;;;;;14.00;14.00;;;;;8.61;66.56;100743.72;146604;607;46008;-78
2022/01/05 01:38:56;;;;;;;;;14.50;12.00;;;;;8.68;67.29;100743.25;146599;622;46010;-87
2022/01/05 01:41:49;;;;;;;;;13.75;12.00;;;;;8.70;67.18;100738.19;146605;645;45020;-90
2022/01/05 01:44:41;;;;;;;;;15.25;13.00;;;;;8.69;66.13;100732.13;146602;650;46017;-86
2022/01/05 01:47:33;;;;;;;;;19.25;17.75;;;;;8.68;67.09;100727.75;146602;608;46008;-75
2022/01/05 01:50:26;;;;;;;;;19.50;17.25;;;;;8.65;67.45;100722.41;146601;589;46010;-77
2022/01/05 01:53:18;;;;;;;;;24.25;22.50;;;;;8.67;68.74;100714.75;146604;604;47008;-77
2022/01/05 01:56:12;;;;;;;;;20.50;19.00;;;;;8.67;67.77;100715.63;146598;584;47916;-74
2022/01/05 01:59:05;;;;;;;;;19.25;16.25;;;;;8.69;67.00;100711.47;146602;640;46008;-73
2022/01/05 02:01:58;;;;;;;;;19.50;16.00;;;;;8.70;66.91;100712.34;146599;569;46010;-74
2022/01/05 02:04:51;;;;;;;;;16.50;16.00;;;;;8.63;67.02;100707.59;146602;573;47008;-75
2022/01/05 02:07:44;;;;;;;;;19.00;17.00;;;;;8.64;67.04;100710.28;146601;602;46010;-76
2022/01/05 02:10:36;;;;;;;;;20.50;17.50;;;;;8.63;66.48;100710.19;146603;565;46008;-83
2022/01/05 02:13:28;;;;;;;;;16.25;14.00;;;;;8.61;66.21;100704.94;146598;585;46917;-83
2022/01/05 02:16:30;;;;;;;;;16.00;15.00;;;;;8.55;66.21;100704.56;146604;573;46020;-73
2022/01/05 02:19:22;;;;;;;;;24.75;19.25;;;;;8.46;68.06;100707.50;146595;581;47012;-72
2022/01/05 02:22:14;;;;;;;;;21.25;17.75;;;;;8.38;67.72;100703.59;146602;567;46020;-72
2022/01/05 02:25:06;;;;;;;;;23.50;21.00;;;;;8.34;67.88;100696.41;146600;597;46010;-72
2022/01/05 02:28:00;;;;;;;;;35.00;30.75;;;;;8.36;68.45;100693.94;146603;582;45021;-72
2022/01/05 02:30:56;;;;;;;;;32.75;30.00;;;;;8.33;69.06;100689.47;146596;624;46019;-76
2022/01/05 02:33:48;;;;;;;;;35.25;30.75;;;;;8.38;68.00;100700.06;146607;569;46020;-77
2022/01/05 02:36:40;;;;;;;;;30.25;23.50;;;;;8.33;67.92;100692.94;146600;565;46016;-77
2022/01/05 02:39:32;;;;;;;;;28.00;24.75;;;;;8.31;68.09;100697.09;146603;577;46020;-75
2022/01/05 02:42:32;;;;;;;;;28.75;25.00;;;;;8.24;69.92;100679.47;146596;579;46016;-75
2022/01/05 02:45:24;;;;;;;;;26.75;25.50;;;;;8.16;70.06;100684.97;146602;609;46008;-78
2022/01/05 02:48:16;;;;;;;;;27.50;24.25;;;;;8.09;70.18;100681.13;146599;584;46016;-82
2022/01/05 02:51:09;;;;;;;;;26.50;23.50;;;;;8.01;69.96;100672.03;146603;622;46021;-78
2022/01/05 02:54:02;;;;;;;;;20.75;20.00;;;;;8.07;70.35;100678.47;146600;607;46016;-85
2022/01/05 02:56:54;;;;;;;;;20.00;17.50;;;;;8.05;69.76;100677.47;146602;716;46008;-85
2022/01/05 02:59:49;;;;;;;;;17.25;16.00;;;;;8.04;69.56;100679.97;146601;653;46010;-83
2022/01/05 03:02:42;;;;;;;;;24.50;19.50;;;;;8.03;70.76;100680.75;146603;598;46008;-87
2022/01/05 03:05:33;;;;;;;;;24.00;17.75;;;;;8.02;70.80;100678.97;146600;595;46011;-78
2022/01/05 03:08:26;;;;;;;;;15.00;15.00;;;;;8.02;70.26;100669.53;146605;593;45020;-77
2022/01/05 03:11:18;;;;;;;;;18.00;14.00;;;;;8.01;70.35;100659.12;146598;565;46916;-78
2022/01/05 03:14:10;;;;;;;;;15.25;14.75;;;;;8.01;70.21;100672.94;146602;588;46021;-80
2022/01/05 03:17:03;;;;;;;;;13.75;13.75;;;;;8.01;70.36;100669.47;146598;566;46029;-78
2022/01/05 03:19:55;;;;;;;;;15.75;14.00;;;;;8.02;70.25;100673.81;146597;579;46934;-72
2022/01/05 03:22:48;;;;;;;;;15.50;13.25;;;;;8.06;70.15;100673.19;146599;635;46012;-72
2022/01/05 03:25:40;;;;;;;;;17.25;15.50;;;;;8.05;70.05;100659.41;146601;569;46020;-72
2022/01/05 03:28:32;;;;;;;;;19.75;14.00;;;;;8.08;70.44;100662.16;146599;581;46010;-72
2022/01/05 03:31:25;;;;;;;;;12.00;11.00;;;;;8.07;70.65;100669.84;146603;593;46010;-71
2022/01/05 03:34:19;;;;;;;;;15.00;13.25;;;;;7.99;70.62;100660.72;146598;594;47011;-71
2022/01/05 03:37:11;;;;;;;;;13.25;11.75;;;;;7.93;70.84;100657.78;146600;578;46008;-71
2022/01/05 03:40:03;;;;;;;;;12.50;12.50;;;;;7.87;70.15;100661.75;146599;581;46916;-71
2022/01/05 03:42:55;;;;;;;;;16.50;12.25;;;;;7.87;70.94;100664.34;146596;599;47008;-71
2022/01/05 03:45:47;;;;;;;;;16.75;13.25;;;;;7.86;70.74;100662.56;146599;627;46016;-71
2022/01/05 03:48:39;;;;;;;;;13.50;11.00;;;;;7.86;69.85;100664.25;146602;572;47020;-72
2022/01/05 03:51:31;;;;;;;;;13.25;12.00;;;;;7.84;69.49;100660.69;146600;593;46016;-71
2022/01/05 03:54:24;;;;;;;;;12.50;12.50;;;;;7.84;69.51;100661.56;146601;593;46020;-71
2022/01/05 03:57:16;;;;;;;;;14.25;13.50;;;;;7.89;70.01;100668.72;146596;590;46016;-76
2022/01/05 04:00:09;;;;;;;;;15.50;11.75;;;;;7.89;69.47;100667.03;146603;620;46020;-71
2022/01/05 04:03:03;;;;;;;;;18.75;16.25;;;;;7.90;71.09;100671.37;146598;583;46016;-71
2022/01/05 04:05:55;;;;;;;;;18.00;18.00;;;;;7.89;71.01;100669.59;146602;573;47010;-71
2022/01/05 04:08:47;;;;;;;;;79.00;63.25;;;;;7.90;70.66;100670.50;146597;569;46016;-70
2022/01/05 04:11:40;;;;;;;;;51.00;41.00;;;;;7.92;70.97;100682.69;146603;581;46021;-74
2022/01/05 04:14:32;;;;;;;;;22.75;19.00;;;;;7.93;71.40;100673.25;146596;583;47025;-76
2022/01/05 04:17:24;;;;;;;;;50.25;41.25;;;;;7.94;70.28;100675.91;146601;690;47008;-76
2022/01/05 04:20:18;;;;;;;;;28.50;25.75;;;;;7.97;72.29;100667.47;146597;648;47012;-77
2022/01/05 04:23:10;;;;;;;;;31.75;30.50;;;;;8.04;70.43;100675.69;146600;735;46020;-77
2022/01/05 04:26:02;;;;;;;;;38.25;32.00;;;;;8.12;69.81;100672.69;146599;606;46017;-77
2022/01/05 04:28:55;;;;;;;;;29.50;25.75;;;;;8.18;69.65;100678.22;146600;578;47008;-78
2022/01/05 04:31:47;;;;;;;;;34.25;28.75;;;;;8.21;69.05;100679.28;146597;611;47010;-78
2022/01/05 04:34:39;;;;;;;;;32.75;29.75;;;;;8.30;68.95;100689.28;146600;622;47008;-78
2022/01/05 04:37:32;;;;;;;;;35.25;30.75;;;;;8.34;69.08;100691.22;146597;603;47010;-76
2022/01/05 04:40:24;;;;;;;;;32.75;29.25;;;;;8.34;68.84;100692.13;146603;603;46020;-76
2022/01/05 04:43:17;;;;;;;;;36.25;25.75;;;;;8.29;69.99;100687.50;146599;597;46010;-76
2022/01/05 04:46:09;;;;;;;;;25.50;24.50;;;;;8.24;69.98;100699.25;146599;648;47010;-76
2022/01/05 04:49:01;;;;;;;;;23.00;18.00;;;;;8.18;70.99;100693.72;146598;609;46017;-75
2022/01/05 04:51:53;;;;;;;;;25.25;23.00;;;;;8.08;69.75;100697.44;146600;622;46020;-76
2022/01/05 04:54:46;;;;;;;;;22.00;21.00;;;;;8.07;70.03;100698.25;146599;573;46016;-76
2022/01/05 04:57:38;;;;;;;;;32.00;25.50;;;;;8.07;69.74;100698.25;146600;564;46021;-77
2022/01/05 05:00:31;;;;;;;;;17.75;16.50;;;;;8.07;69.92;100701.72;146599;602;46016;-80
2022/01/05 05:03:23;;;;;;;;;32.75;30.00;;;;;8.08;68.93;100694.84;146602;613;46011;-73
2022/01/05 05:06:15;;;;;;;;;25.00;24.25;;;;;8.07;69.75;100696.53;146600;626;46016;-75
2022/01/05 05:09:08;;;;;;;;;14.50;13.50;;;;;8.07;69.67;100706.00;146602;636;47008;-75
2022/01/05 05:12:00;;;;;;;;;10.50;10.00;;;;;8.05;69.33;100703.28;146600;576;46010;-78
2022/01/05 05:14:53;;;;;;;;;12.25;12.25;;;;;8.08;70.21;100708.66;146603;575;47008;-75
2022/01/05 05:17:45;;;;;;;;;24.50;23.00;;;;;8.10;68.67;100703.59;146601;589;46016;-77
2022/01/05 05:20:38;;;;;;;;;24.00;23.25;;;;;8.13;68.12;100698.63;146602;620;46021;-78
2022/01/05 05:23:30;;;;;;;;;20.00;18.00;;;;;8.13;68.41;100696.03;146601;574;45916;-72
2022/01/05 05:26:22;;;;;;;;;10.50;10.00;;;;;8.07;68.48;100699.13;146603;593;46008;-73
2022/01/05 05:29:14;;;;;;;;;12.50;12.25;;;;;8.05;67.94;100700.72;146599;573;46010;-78
2022/01/05 05:32:07;;;;;;;;;13.50;11.00;;;;;8.08;68.44;100705.19;146605;602;47008;-77
2022/01/05 05:34:59;;;;;;;;;13.25;10.75;;;;;8.09;68.24;100709.53;146602;609;45917;-73
2022/01/05 05:37:51;;;;;;;;;39.50;33.00;;;;;8.04;68.75;100708.37;146601;564;46010;-74
2022/01/05 05:40:44;;;;;;;;;23.75;20.50;;;;;7.96;68.52;100718.22;146599;617;46016;-74
2022/01/05 05:43:36;;;;;;;;;24.25;23.75;;;;;7.89;68.75;100710.03;146600;572;46021;-73
2022/01/05 05:46:28;;;;;;;;;39.00;32.00;;;;;7.85;68.95;100714.13;146598;569;46016;-72
2022/01/05 05:49:20;;;;;;;;;24.50;21.50;;;;;7.81;69.56;100710.41;146600;671;46008;-74
2022/01/05 05:52:13;;;;;;;;;32.50;29.75;;;;;7.79;69.38;100724.94;146599;597;46010;-74
2022/01/05 05:55:05;;;;;;;;;22.75;19.75;;;;;7.76;69.55;100736.78;146603;589;46008;-72
2022/01/05 05:57:57;;;;;;;;;29.50;25.50;;;;;7.74;68.95;100725.44;146598;588;46016;-71
2022/01/05 06:00:50;;;;;;;;;19.75;15.00;;;;;7.69;69.65;100730.31;146604;582;45020;-71
2022/01/05 06:03:42;;;;;;;;;18.25;17.00;;;;;7.68;69.85;100719.91;146599;694;46943;-72
2022/01/05 06:06:34;;;;;;;;;19.50;15.00;;;;;7.67;70.48;100728.44;146603;751;47008;-71
2022/01/05 06:09:26;;;;;;;;;24.25;22.50;;;;;7.68;70.02;100727.66;146599;669;46016;-71
2022/01/05 06:12:19;;;;;;;;;32.50;27.00;;;;;7.74;69.67;100735.78;146604;571;46008;-72
2022/01/05 06:15:12;;;;;;;;;34.00;26.25;;;;;7.79;69.65;100724.94;146599;569;46010;-74
2022/01/05 06:18:04;;;;;;;;;35.00;32.50;;;;;7.84;69.63;100718.34;146605;581;46009;-77
2022/01/05 06:20:56;;;;;;;;;34.00;30.75;;;;;7.91;69.53;100731.66;146601;563;46916;-76
2022/01/05 06:23:49;;;;;;;;;71.75;55.50;;;;;8.00;69.19;100724.47;146605;579;46008;-73
2022/01/05 06:26:41;;;;;;;;;98.67;81.33;;;;;8.09;68.69;100727.63;146599;578;46017;-74
2022/01/05 06:29:33;;;;;;;;;73.75;54.00;;;;;8.18;68.93;100725.59;146611;611;46020;-75
2022/01/05 06:32:25;;;;;;;;;244.25;194.00;;;;;8.27;68.70;100727.84;146606;663;46010;-75
2022/01/05 06:35:23;;;;;;;;;87.00;70.67;;;;;8.37;68.30;100735.34;146612;644;46020;-74
2022/01/05 06:38:16;;;;;;;;;83.00;68.33;;;;;8.50;67.82;100744.75;146600;620;46016;-72
2022/01/05 06:41:09;;;;;;;;;74.50;55.75;;;;;8.75;68.87;100748.00;146609;578;46008;-73
2022/01/05 06:44:01;;;;;;;;;70.25;52.50;;;;;9.27;68.09;100749.22;146597;639;47916;-74
2022/01/05 06:46:53;;;;;;;;;49.50;38.00;;;;;10.04;67.44;100749.16;146604;602;46020;-74
2022/01/05 06:49:45;;;;;;;;;51.75;39.75;;;;;10.88;64.73;100748.38;146599;567;47010;-75
2022/01/05 06:52:38;;;;;;;;;38.25;30.50;;;;;11.60;63.56;100746.72;146601;687;47008;-75
2022/01/05 06:55:30;;;;;;;;;21.25;18.50;;;;;12.23;61.82;100742.72;146601;596;46016;-75
2022/01/05 06:58:23;;;;;;;;;28.00;21.75;;;;;12.86;60.95;100747.16;146607;604;45021;-74
2022/01/05 07:01:15;;;;;;;;;19.50;17.50;;;;;13.69;59.63;100745.34;146600;597;46030;-72
2022/01/05 07:04:07;;;;;;;;;31.50;29.75;;;;;14.47;57.55;100740.44;146603;570;46020;-72
2022/01/05 07:07:00;;;;;;;;;60.25;46.00;;;;;15.11;56.22;100747.91;146602;712;46010;-74
2022/01/05 07:09:52;;;;;;;;;36.25;31.25;;;;;15.73;54.64;100742.06;146604;616;46021;-74
2022/01/05 07:12:45;;;;;;;;;37.00;30.50;;;;;16.27;54.03;100742.81;146602;594;45917;-74
2022/01/05 07:15:37;;;;;;;;;19.75;18.75;;;;;16.85;52.27;100733.94;146599;601;46020;-75
2022/01/05 07:18:29;;;;;;;;;22.75;18.75;;;;;17.43;51.60;100750.22;146600;564;46011;-75
2022/01/05 07:21:21;;;;;;;;;24.50;20.50;;;;;18.07;50.24;100750.81;146604;575;46008;-76
2022/01/05 07:24:16;;;;;;;;;48.50;39.25;;;;;18.10;48.83;100655.50;146596;702;47013;-76
2022/01/05 07:27:09;;;;;;;;;43.25;36.00;;;;;19.18;47.23;100742.41;146603;597;46020;-75
2022/01/05 07:30:01;;;;;;;;;58.50;47.00;;;;;19.37;46.72;100747.97;146598;588;46016;-73
2022/01/05 07:32:54;;;;;;;;;52.00;42.50;;;;;19.52;46.56;100742.06;146600;607;47009;-75
2022/01/05 07:35:46;;;;;;;;;45.50;37.50;;;;;19.86;46.36;100742.59;146614;564;46016;-76
2022/01/05 07:38:39;;;;;;;;;49.75;38.50;;;;;20.21;46.19;100745.66;146602;577;47008;-75
2022/01/05 07:41:31;;;;;;;;;50.75;42.50;;;;;20.50;44.99;100748.66;146597;611;47012;-74
2022/01/05 07:44:23;;;;;;;;;72.25;58.50;;;;;20.63;43.64;100733.91;146600;611;47008;-74
2022/01/05 07:47:16;;;;;;;;;63.75;50.00;;;;;20.48;43.93;100738.97;146601;579;46016;-72
2022/01/05 07:50:14;;;;;;;;;64.25;49.50;;;;;20.24;42.95;100739.56;146603;608;46020;-72
2022/01/05 07:53:06;;;;;;;;;53.25;41.75;;;;;19.72;44.22;100737.16;146600;780;46016;-76
2022/01/05 07:55:58;;;;;;;;;44.75;35.75;;;;;19.26;45.60;100740.81;146600;579;47008;-70
2022/01/05 07:58:51;;;;;;;;;43.25;36.00;;;;;18.92;45.24;100732.34;146599;602;46030;-70
2022/01/05 08:01:43;;;;;;;;;42.00;33.25;;;;;18.57;46.39;100745.69;146601;596;47008;-70
2022/01/05 08:04:35;;;;;;;;;39.25;33.25;;;;;18.35;46.88;100749.66;146599;626;46016;-69
2022/01/05 08:07:28;;;;;;;;;44.75;37.75;;;;;18.15;48.73;100743.97;146602;694;46020;-69
2022/01/05 08:10:20;;;;;;;;;41.00;32.50;;;;;18.04;48.75;100753.38;146598;619;46017;-69
2022/01/05 08:13:13;;;;;;;;;28.00;25.50;;;;;17.89;48.26;100759.16;146599;631;46008;-69
2022/01/05 08:16:05;;;;;;;;;28.75;26.25;;;;;17.75;50.73;100756.19;146599;587;46010;-67
2022/01/05 08:18:57;;;;;;;;;36.00;29.75;;;;;17.71;50.34;100754.34;146601;564;47008;-67
2022/01/05 08:21:50;;;;;;;;;30.75;29.50;;;;;17.74;51.22;100754.44;146598;581;46029;-69
2022/01/05 08:24:42;;;;;;;;;30.25;28.50;;;;;17.75;51.10;100747.44;146601;754;47008;-66
2022/01/05 08:27:34;;;;;;;;;33.50;27.75;;;;;17.81;53.11;100752.84;146596;586;47010;-67
2022/01/05 08:30:33;;;;;;;;;36.25;33.25;;;;;17.99;50.73;100740.16;146604;564;46008;-68
2022/01/05 08:33:25;;;;;;;;;39.25;31.25;;;;;18.12;49.85;100736.03;146597;594;47010;-67
2022/01/05 08:36:18;;;;;;;;;30.25;27.25;;;;;18.10;50.05;100736.84;146599;593;47008;-68
2022/01/05 08:39:10;;;;;;;;;44.00;35.00;;;;;18.09;49.50;100729.84;146599;588;46010;-68
2022/01/05 08:42:02;;;;;;;;;46.75;37.50;;;;;18.11;49.20;100722.91;146602;563;46008;-67
2022/01/05 08:44:55;;;;;;;;;51.75;41.75;;;;;18.19;48.44;100722.22;146598;579;46016;-69
2022/01/05 08:47:49;;;;;;;;;43.00;35.50;;;;;18.18;49.95;100714.28;146601;571;47008;-68
2022/01/05 08:50:42;;;;;;;;;56.25;44.00;;;;;18.17;49.03;100715.16;146599;586;46016;-70
2022/01/05 08:53:34;;;;;;;;;51.00;40.00;;;;;18.21;49.36;100711.72;146603;572;46009;-70
2022/01/05 08:56:27;;;;;;;;;51.25;41.25;;;;;18.26;49.08;100715.34;146597;622;47012;-68
2022/01/05 08:59:20;;;;;;;;;53.25;42.75;;;;;18.27;48.82;100713.59;146601;601;46020;-69
2022/01/05 09:02:13;;;;;;;;;50.75;42.25;;;;;18.29;49.50;100697.03;146599;753;46913;-70
2022/01/05 09:05:24;;;;;;;;;52.25;41.75;;;;;18.40;49.26;100698.09;146601;622;46020;-69
2022/01/05 09:08:16;;;;;;;;;50.25;40.25;;;;;18.52;48.12;100693.94;146599;617;46016;-70
2022/01/05 09:11:09;;;;;;;;;41.75;34.50;;;;;18.60;48.94;100694.97;146597;618;47008;-70
2022/01/05 09:14:01;;;;;;;;;49.25;41.00;;;;;18.62;47.93;100690.63;146597;618;47013;-68
2022/01/05 09:16:53;;;;;;;;;38.00;30.50;;;;;18.66;47.99;100687.19;146601;646;47008;-68
2022/01/05 09:19:46;;;;;;;;;32.00;30.25;;;;;18.74;47.59;100696.12;146594;606;47914;-67
2022/01/05 09:22:39;;;;;;;;;24.00;21.00;;;;;18.80;47.71;100695.34;146602;653;46008;-69
2022/01/05 09:25:31;;;;;;;;;39.75;30.25;;;;;18.89;48.95;100703.38;146598;604;46016;-68
2022/01/05 09:28:24;;;;;;;;;35.75;29.00;;;;;19.01;48.51;100692.22;146596;588;47020;-68
2022/01/05 09:31:16;;;;;;;;;32.50;30.00;;;;;19.06;47.16;100693.16;146600;600;46017;-69
2022/01/05 09:34:10;;;;;;;;;27.75;27.25;;;;;19.07;47.99;100701.06;146601;589;46020;-69
2022/01/05 09:37:09;;;;;;;;;25.75;24.00;;;;;19.07;45.72;100695.81;146600;688;46016;-68
2022/01/05 09:43:12;;;;;;;;;18.50;18.00;;;;;18.73;47.85;100680.34;146595;572;47935;-68
2022/01/05 09:46:24;;;;;;;;;20.25;19.25;;;;;18.76;49.06;100678.66;146601;636;46008;-69
2022/01/05 09:49:22;;;;;;;;;21.75;19.00;;;;;18.82;46.77;100668.25;146600;637;46914;-69
2022/01/05 09:52:15;;;;;;;;;27.25;24.25;;;;;18.80;46.33;100672.59;146603;569;46020;-70
2022/01/05 09:55:10;;;;;;;;;25.25;22.25;;;;;18.74;46.28;100659.34;146597;613;46016;-70
2022/01/05 09:58:03;;;;;;;;;28.25;26.00;;;;;18.70;47.12;100654.88;146601;571;46020;-68
2022/01/05 10:00:56;;;;;;;;;25.75;23.00;;;;;18.71;48.54;100659.25;146596;564;46033;-69
2022/01/05 10:03:48;;;;;;;;;26.75;24.75;;;;;18.71;47.04;100640.87;146606;569;46008;-73
2022/01/05 10:06:40;;;;;;;;;22.50;20.50;;;;;18.69;46.35;100632.06;146599;685;46017;-70
2022/01/05 10:09:33;;;;;;;;;21.25;20.75;;;;;18.74;47.86;100626.94;146602;591;46008;-72
2022/01/05 10:12:26;;;;;;;;;24.50;21.00;;;;;18.92;48.30;100622.88;146599;570;46016;-70
2022/01/05 10:15:20;;;;;;;;;25.75;24.00;;;;;19.13;48.18;100627.59;146603;573;46021;-69
2022/01/05 10:18:23;;;;;;;;;29.50;27.25;;;;;19.35;49.88;100625.25;146601;563;46010;-70
2022/01/05 10:21:17;;;;;;;;;23.25;20.25;;;;;19.44;49.03;100628.03;146603;590;46021;-70
2022/01/05 10:24:09;;;;;;;;;23.25;17.50;;;;;19.46;49.12;100625.41;146603;640;46012;-70
2022/01/05 10:27:02;;;;;;;;;21.25;18.50;;;;;19.44;49.90;100621.84;146606;576;45020;-70
2022/01/05 10:30:04;;;;;;;;;24.00;23.00;;;;;19.44;49.57;100625.38;146599;629;46010;-71
2022/01/05 10:32:58;;;;;;;;;21.50;19.75;;;;;19.46;49.13;100621.00;146600;558;46020;-70
2022/01/05 10:36:00;;;;;;;;;21.00;19.00;;;;;19.50;50.44;100624.56;146600;636;46012;-70
2022/01/05 10:39:00;;;;;;;;;21.25;20.00;;;;;19.65;48.48;100618.66;146603;618;46020;-70
2022/01/05 10:41:53;;;;;;;;;21.00;18.75;;;;;19.75;46.65;100624.06;146599;629;47010;-71
2022/01/05 10:44:46;;;;;;;;;18.50;16.50;;;;;19.79;48.75;100624.97;146604;566;46008;-71
2022/01/05 10:47:41;;;;;;;;;21.25;19.75;;;;;19.83;47.41;100616.25;146602;666;46010;-72
2022/01/05 10:50:33;;;;;;;;;18.75;17.25;;;;;19.88;48.10;100616.31;146603;676;46010;-70
2022/01/05 10:53:25;;;;;;;;;18.25;17.00;;;;;19.89;47.71;100608.44;146602;584;46016;-71
2022/01/05 10:56:30;;;;;;;;;18.00;12.50;;;;;19.92;48.57;100604.97;146601;592;46008;-71
2022/01/05 10:59:42;;;;;;;;;19.25;17.25;;;;;19.97;48.53;100600.59;146595;611;46017;-71
2022/01/05 11:02:36;;;;;;;;;19.25;17.25;;;;;19.94;46.17;100597.97;146601;636;46020;-71
2022/01/05 11:05:28;;;;;;;;;17.75;16.75;;;;;19.72;45.39;100599.44;146601;608;46016;-71
2022/01/05 11:08:21;;;;;;;;;20.00;16.75;;;;;19.57;47.02;100598.38;146600;584;47008;-72
2022/01/05 11:11:44;;;;;;;;;17.50;16.25;;;;;19.43;48.80;100578.91;146601;591;46016;-70
2022/01/05 11:14:38;;;;;;;;;19.00;18.00;;;;;19.32;47.42;100565.63;146602;569;46021;-70
2022/01/05 11:17:30;;;;;;;;;16.50;13.75;;;;;19.20;46.98;100562.84;146600;577;46010;-71
2022/01/05 11:20:22;;;;;;;;;18.75;16.25;;;;;19.20;48.27;100564.59;146601;570;47008;-70
2022/01/05 11:23:16;;;;;;;;;18.00;16.25;;;;;18.56;48.33;100434.06;146597;581;47012;-70
2022/01/05 11:26:08;;;;;;;;;22.75;21.00;;;;;19.38;46.91;100568.34;146600;592;47008;-70
2022/01/05 11:29:03;;;;;;;;;27.25;24.50;;;;;19.46;47.89;100557.91;146598;594;47012;-70
2022/01/05 11:31:57;;;;;;;;;27.50;24.25;;;;;19.64;47.66;100574.78;146601;604;46008;-71
2022/01/05 11:34:52;;;;;;;;;27.00;25.25;;;;;19.79;46.56;100565.34;146597;644;46016;-70
2022/01/05 11:37:44;;;;;;;;;26.00;21.25;;;;;19.95;46.20;100569.03;146600;570;46008;-70
2022/01/05 11:40:38;;;;;;;;;23.50;23.00;;;;;20.14;46.97;100559.56;146599;588;46016;-70
2022/01/05 11:43:35;;;;;;;;;27.25;23.75;;;;;20.44;45.21;100568.63;146600;599;47010;-68
2022/01/05 11:46:33;;;;;;;;;28.75;24.25;;;;;20.67;45.19;100567.06;146598;602;46016;-71
2022/01/05 11:49:33;;;;;;;;;31.00;26.75;;;;;20.85;45.17;100554.91;146601;567;46010;-70
2022/01/05 11:56:18;;;;;;;;;24.25;21.75;;;;;20.58;41.06;100553.81;146602;667;46011;-69
2022/01/05 11:59:36;;;;;;;;;29.00;26.00;;;;;20.48;45.31;100554.59;146598;625;46016;-71
2022/01/05 12:02:43;;;;;;;;;29.25;27.00;;;;;20.53;44.54;100545.03;146602;624;46020;-70
2022/01/05 12:06:07;;;;;;;;;19.50;18.50;;;;;20.67;45.74;100539.84;146600;625;46016;-71
2022/01/05 12:09:01;;;;;;;;;14.00;13.00;;;;;20.80;42.10;100528.50;146601;563;46020;-71
2022/01/05 12:11:53;;;;;;;;;12.00;10.75;;;;;20.93;41.95;100524.19;146597;603;47010;-71
2022/01/05 12:14:50;;;;;;;;;14.50;13.00;;;;;21.09;42.28;100525.16;146603;687;46008;-69
2022/01/05 12:17:42;;;;;;;;;18.00;14.00;;;;;21.15;39.11;100528.72;146596;632;47010;-71
2022/01/05 12:20:39;;;;;;;;;17.50;17.00;;;;;21.16;41.45;100516.44;146600;596;46021;-71
2022/01/05 12:23:35;;;;;;;;;16.75;16.75;;;;;21.15;42.45;100514.63;146597;730;47010;-71
2022/01/05 12:26:28;;;;;;;;;19.00;18.75;;;;;21.30;42.41;100511.19;146605;591;46008;-71
2022/01/05 12:29:33;;;;;;;;;14.00;10.00;;;;;21.47;44.62;100508.69;146599;622;46016;-71
2022/01/05 12:32:44;;;;;;;;;20.25;18.75;;;;;21.78;44.20;100504.34;146604;706;46008;-72
2022/01/05 12:35:51;;;;;;;;;18.75;16.00;;;;;21.97;40.26;100507.91;146599;580;46010;-71
2022/01/05 12:38:50;;;;;;;;;14.00;12.50;;;;;22.00;39.99;100507.91;146602;703;46020;-70
2022/01/05 12:41:47;;;;;;;;;8.50;8.25;;;;;21.99;41.11;100493.81;146598;593;47010;-70
2022/01/05 12:44:40;;;;;;;;;13.00;11.00;;;;;22.17;40.75;100500.03;146603;573;46020;-71
2022/01/05 12:47:41;;;;;;;;;9.25;8.00;;;;;22.45;39.33;100492.97;146599;569;46010;-71
2022/01/05 12:50:39;;;;;;;;;13.00;11.75;;;;;22.51;39.56;100499.13;146603;597;46021;-70
2022/01/05 12:53:41;;;;;;;;;11.00;11.00;;;;;22.52;39.13;100502.63;146597;651;46016;-70
2022/01/05 12:56:54;;;;;;;;;17.50;14.00;;;;;21.66;41.16;100350.41;146601;625;46008;-70
2022/01/05 12:59:49;;;;;;;;;12.50;10.00;;;;;22.53;38.57;100496.50;146598;644;47010;-70
2022/01/05 13:02:43;;;;;;;;;9.25;8.50;;;;;22.49;35.99;100485.06;146601;575;46020;-70
2022/01/05 13:05:39;;;;;;;;;11.67;10.67;;;;;22.39;35.39;100496.47;146599;573;46917;-70
2022/01/05 13:08:32;;;;;;;;;9.67;9.67;;;;;22.27;38.38;100494.72;146602;648;46008;-70
2022/01/05 13:11:54;;;;;;;;;10.33;10.33;;;;;22.35;41.93;100498.25;146598;565;47011;-72
2022/01/05 13:14:52;;;;;;;;;14.25;13.50;;;;;22.54;39.57;100493.81;146601;708;46008;-72
2022/01/05 13:17:44;;;;;;;;;13.67;12.67;;;;;22.57;38.00;100499.09;146600;671;46016;-70
2022/01/05 13:20:36;;;;;;;;;13.00;11.00;;;;;22.63;36.81;100489.44;146602;593;46020;-70
2022/01/05 13:23:29;;;;;;;;;9.67;9.67;;;;;22.63;37.15;100500.88;146601;613;46916;-71